Time;durP1;ratioP1;P1;durP2;ratioP2;P2;SDS_P1;SDS_P2;PMS_P1;PMS_P2;Temp;Humidity;BMP_temperature;BMP_pressure;BME280_temperature;BME280_humidity;BME280_pressure;Samples;Min_cycle;Max_cycle;Signal;HPM_P1;HPM_P2
2023/07/17 00:00:00;;;;;;;2.93;2.47;;;18.70;99.90;;;;;;5083648;28;20239;-57
2023/07/17 00:02:27;;;;;;;3.00;2.10;;;18.70;99.90;;;;;;5081479;28;20972;-51
2023/07/17 00:04:54;;;;;;;3.03;2.00;;;18.70;99.90;;;;;;5083126;28;20259;-49
2023/07/17 00:07:20;;;;;;;3.60;2.40;;;18.70;99.90;;;;;;5077530;28;20231;-56
2023/07/17 00:09:49;;;;;;;3.50;2.43;;;18.70;99.90;;;;;;5056352;28;20226;-48
2023/07/17 00:12:15;;;;;;;4.07;2.20;;;18.70;99.90;;;;;;5079230;28;20243;-57
2023/07/17 00:14:42;;;;;;;2.43;2.23;;;18.70;99.90;;;;;;5084154;28;20805;-57
2023/07/17 00:17:09;;;;;;;3.17;1.97;;;18.70;99.90;;;;;;5081362;28;20654;-58
2023/07/17 00:19:39;;;;;;;4.90;2.53;;;18.70;99.90;;;;;;5080698;28;21727;-53
2023/07/17 00:22:07;;;;;;;3.43;2.43;;;18.60;99.90;;;;;;5078340;28;20220;-57
2023/07/17 00:24:33;;;;;;;2.80;2.17;;;18.60;99.90;;;;;;5062194;28;20210;-52
2023/07/17 00:27:02;;;;;;;4.10;2.50;;;18.60;99.90;;;;;;5082489;28;20266;-59
2023/07/17 00:29:29;;;;;;;4.37;2.20;;;18.70;99.90;;;;;;5072117;28;20220;-53
2023/07/17 00:31:56;;;;;;;4.10;2.10;;;18.70;99.90;;;;;;5079613;28;20190;-57
2023/07/17 00:34:24;;;;;;;4.00;2.40;;;18.70;99.90;;;;;;5078021;28;20190;-50
2023/07/17 00:36:51;;;;;;;2.77;2.10;;;18.60;99.90;;;;;;5083350;28;20213;-51
2023/07/17 00:39:19;;;;;;;4.00;2.53;;;18.60;99.90;;;;;;5078097;28;20177;-53
2023/07/17 00:41:46;;;;;;;3.67;2.23;;;18.60;99.90;;;;;;5063838;28;20197;-52
2023/07/17 00:44:15;;;;;;;2.83;2.20;;;18.50;99.90;;;;;;5075004;28;20182;-59
2023/07/17 00:46:42;;;;;;;3.03;2.37;;;18.50;99.90;;;;;;5080242;28;20756;-55
2023/07/17 00:49:10;;;;;;;2.40;2.20;;;18.50;99.90;;;;;;5080613;28;20194;-58
2023/07/17 00:51:38;;;;;;;3.93;2.20;;;18.50;99.90;;;;;;5082689;28;20194;-57
2023/07/17 00:54:06;;;;;;;4.50;2.37;;;18.40;99.90;;;;;;5081636;28;20190;-57
2023/07/17 00:56:34;;;;;;;3.50;2.47;;;18.40;99.90;;;;;;5054911;28;20412;-53
2023/07/17 00:59:01;;;;;;;3.03;2.30;;;18.40;99.90;;;;;;5082164;28;20185;-58
2023/07/17 01:01:29;;;;;;;4.97;2.50;;;18.40;99.90;;;;;;5070203;28;20198;-56
2023/07/17 01:03:57;;;;;;;3.70;2.30;;;18.40;99.90;;;;;;5078863;28;20214;-54
2023/07/17 01:06:27;;;;;;;7.87;2.97;;;18.40;99.90;;;;;;5081502;28;20206;-54
2023/07/17 01:08:55;;;;;;;4.93;3.07;;;18.40;99.90;;;;;;5071764;28;20171;-52
2023/07/17 01:11:21;;;;;;;3.87;2.47;;;18.30;99.90;;;;;;5082743;28;20209;-50
2023/07/17 01:13:50;;;;;;;3.23;2.40;;;18.30;99.90;;;;;;5060308;28;20687;-58
2023/07/17 01:16:16;;;;;;;4.20;2.50;;;18.30;99.90;;;;;;5081923;28;20214;-55
2023/07/17 01:18:44;;;;;;;4.13;2.40;;;18.30;99.90;;;;;;5082310;28;20194;-56
2023/07/17 01:21:14;;;;;;;3.87;2.20;;;18.30;99.90;;;;;;5080515;28;20205;-54
2023/07/17 01:23:44;;;;;;;2.30;2.10;;;18.30;99.90;;;;;;5085219;28;20209;-55
2023/07/17 01:26:13;;;;;;;3.97;2.60;;;18.30;99.90;;;;;;5085468;28;20210;-53
2023/07/17 01:28:40;;;;;;;4.40;2.30;;;18.30;99.90;;;;;;5060811;28;20275;-59
2023/07/17 01:31:08;;;;;;;3.70;2.53;;;18.20;99.90;;;;;;5071447;28;20293;-57
2023/07/17 01:33:35;;;;;;;3.17;2.60;;;18.20;99.90;;;;;;5078275;28;20854;-57
2023/07/17 01:36:04;;;;;;;3.50;2.07;;;18.10;99.90;;;;;;5085502;28;20243;-54
2023/07/17 01:38:32;;;;;;;6.30;2.37;;;18.10;99.90;;;;;;5079543;28;20284;-59
2023/07/17 01:41:00;;;;;;;3.83;2.70;;;18.10;99.90;;;;;;5081546;28;20613;-54
2023/07/17 01:43:27;;;;;;;4.40;2.87;;;18.20;99.90;;;;;;5059868;28;20336;-58
2023/07/17 01:45:54;;;;;;;2.97;2.40;;;18.10;99.90;;;;;;5082423;28;20213;-54
2023/07/17 01:48:21;;;;;;;2.67;2.47;;;18.10;99.90;;;;;;5083815;28;20186;-59
2023/07/17 01:50:48;;;;;;;4.23;2.63;;;18.00;99.90;;;;;;5076863;28;20932;-53
2023/07/17 01:53:17;;;;;;;4.10;2.73;;;18.00;99.90;;;;;;5086586;28;20239;-56
2023/07/17 01:55:44;;;;;;;6.30;2.70;;;18.00;99.90;;;;;;5076829;28;20210;-57
2023/07/17 01:58:12;;;;;;;3.00;2.70;;;18.10;99.90;;;;;;5084581;28;20191;-53
2023/07/17 02:00:39;;;;;;;5.17;2.63;;;18.00;99.90;;;;;;5061977;28;20210;-54
2023/07/17 02:03:05;;;;;;;2.90;2.60;;;18.00;99.90;;;;;;5086317;28;20218;-56
2023/07/17 02:05:34;;;;;;;3.17;2.73;;;18.00;99.90;;;;;;5082022;28;20225;-53
2023/07/17 02:08:02;;;;;;;3.13;2.83;;;18.10;99.90;;;;;;5078007;28;20506;-57
2023/07/17 02:10:30;;;;;;;3.03;2.63;;;18.10;99.90;;;;;;5081103;28;20194;-58
2023/07/17 02:12:56;;;;;;;3.17;2.70;;;18.00;99.90;;;;;;5086136;28;20282;-56
2023/07/17 02:15:25;;;;;;;4.97;3.40;;;18.00;99.90;;;;;;5058949;28;20218;-54
2023/07/17 02:17:52;;;;;;;4.47;2.70;;;18.00;99.90;;;;;;5083069;28;20235;-58
2023/07/17 02:20:18;;;;;;;4.23;2.77;;;18.00;99.90;;;;;;5074213;28;20202;-50
2023/07/17 02:22:45;;;;;;;2.93;2.73;;;18.00;99.90;;;;;;5082940;28;20290;-58
2023/07/17 02:25:12;;;;;;;3.50;2.80;;;18.00;99.90;;;;;;5082971;28;20209;-53
2023/07/17 02:27:39;;;;;;;4.83;3.07;;;18.00;99.90;;;;;;5084471;28;20656;-56
2023/07/17 02:30:07;;;;;;;2.63;2.33;;;18.00;99.90;;;;;;5060312;28;20916;-53
2023/07/17 02:32:35;;;;;;;3.97;2.80;;;18.00;99.90;;;;;;5078889;28;20190;-57
2023/07/17 02:35:02;;;;;;;4.60;2.60;;;17.90;99.90;;;;;;5081942;28;20938;-51
2023/07/17 02:37:29;;;;;;;3.77;2.60;;;18.00;99.90;;;;;;5084305;28;20198;-54
2023/07/17 02:39:56;;;;;;;4.33;3.07;;;17.90;99.90;;;;;;5080563;28;20732;-58
2023/07/17 02:42:23;;;;;;;4.00;2.60;;;18.00;99.90;;;;;;5082224;28;20259;-54
2023/07/17 02:44:50;;;;;;;5.07;2.60;;;18.00;99.90;;;;;;5079336;28;20255;-58
2023/07/17 02:47:18;;;;;;;4.23;3.13;;;17.90;99.90;;;;;;5063396;28;20225;-56
2023/07/17 02:49:46;;;;;;;3.73;3.17;;;17.90;99.90;;;;;;5083411;28;20200;-58
2023/07/17 02:52:12;;;;;;;2.77;2.50;;;17.90;99.90;;;;;;5083830;28;20289;-55
2023/07/17 02:54:39;;;;;;;3.43;2.73;;;17.80;99.90;;;;;;5081807;28;20198;-58
2023/07/17 02:57:08;;;;;;;4.43;3.07;;;17.80;99.90;;;;;;5079514;28;20289;-53
2023/07/17 02:59:36;;;;;;;4.33;2.53;;;17.60;99.90;;;;;;5085191;28;20205;-51
2023/07/17 03:02:04;;;;;;;4.20;2.77;;;17.70;99.90;;;;;;5060286;28;22027;-57
2023/07/17 03:04:31;;;;;;;4.27;2.63;;;17.60;99.90;;;;;;5083493;28;20537;-52
2023/07/17 03:06:59;;;;;;;4.70;2.90;;;17.60;99.90;;;;;;5073441;28;20283;-56
2023/07/17 03:09:27;;;;;;;5.03;2.77;;;17.50;99.90;;;;;;5078568;28;20601;-53
2023/07/17 03:11:54;;;;;;;4.17;2.43;;;17.50;99.90;;;;;;5080776;28;20641;-58
2023/07/17 03:14:20;;;;;;;4.37;3.00;;;17.50;99.90;;;;;;5085015;28;20205;-57
2023/07/17 03:16:47;;;;;;;2.97;2.60;;;17.40;99.90;;;;;;5082618;28;20224;-56
2023/07/17 03:19:14;;;;;;;3.70;2.63;;;17.40;99.90;;;;;;5056542;28;20618;-57
2023/07/17 03:21:41;;;;;;;3.27;2.73;;;17.40;99.90;;;;;;5082362;28;20201;-58
2023/07/17 03:24:09;;;;;;;4.23;2.57;;;17.40;99.90;;;;;;5082326;28;20214;-54
2023/07/17 03:26:36;;;;;;;5.20;2.63;;;17.30;99.90;;;;;;5083334;28;20299;-53
2023/07/17 03:29:04;;;;;;;3.63;2.43;;;17.30;99.90;;;;;;5081100;28;20189;-55
2023/07/17 03:31:31;;;;;;;3.83;2.60;;;17.30;99.90;;;;;;5077641;28;20205;-51
2023/07/17 03:33:58;;;;;;;5.67;2.90;;;17.30;99.90;;;;;;5059371;28;20267;-54
2023/07/17 03:36:26;;;;;;;3.60;2.77;;;17.30;99.90;;;;;;5082531;28;20226;-53
2023/07/17 03:38:53;;;;;;;4.97;2.60;;;17.30;99.90;;;;;;5081564;28;20190;-57
2023/07/17 03:41:22;;;;;;;5.00;2.77;;;17.40;99.90;;;;;;5082463;28;20687;-54
2023/07/17 03:43:49;;;;;;;3.20;2.90;;;17.40;99.90;;;;;;5076338;28;20209;-55
2023/07/17 03:46:17;;;;;;;3.87;2.30;;;17.40;99.90;;;;;;5081931;28;20210;-51
2023/07/17 03:48:45;;;;;;;4.47;2.63;;;17.40;99.90;;;;;;5072352;28;20201;-55
2023/07/17 03:51:12;;;;;;;3.37;2.97;;;17.40;99.90;;;;;;5061205;28;20194;-52
2023/07/17 03:53:40;;;;;;;4.53;3.17;;;17.40;99.90;;;;;;5080186;28;20265;-56
2023/07/17 03:56:07;;;;;;;4.33;2.63;;;17.50;99.90;;;;;;5075874;28;20288;-53
2023/07/17 03:58:35;;;;;;;5.53;2.63;;;17.40;99.90;;;;;;5082488;28;20197;-53
2023/07/17 04:01:02;;;;;;;5.17;3.40;;;17.50;99.90;;;;;;5069895;28;20209;-55
2023/07/17 04:03:38;;;;;;;3.43;2.57;;;17.50;99.90;;;;;;5079211;28;20235;-52
2023/07/17 04:06:05;;;;;;;5.93;2.70;;;17.50;99.90;;;;;;5062066;28;20301;-53
2023/07/17 04:08:33;;;;;;;5.30;2.90;;;17.50;99.90;;;;;;5069531;28;20226;-52
2023/07/17 04:10:59;;;;;;;4.67;2.50;;;17.50;99.90;;;;;;5083615;28;20205;-52
2023/07/17 04:13:26;;;;;;;4.93;2.90;;;17.60;99.90;;;;;;5080666;28;20611;-58
2023/07/17 04:15:55;;;;;;;3.23;2.80;;;17.60;99.90;;;;;;5074742;28;20232;-50
2023/07/17 04:18:22;;;;;;;4.50;2.83;;;17.50;99.90;;;;;;5075909;28;20186;-57
2023/07/17 04:20:49;;;;;;;6.33;2.70;;;17.50;99.90;;;;;;5072648;28;20209;-52
2023/07/17 04:23:16;;;;;;;3.83;3.00;;;17.60;99.90;;;;;;5051457;28;20569;-57
2023/07/17 04:25:47;;;;;;;4.10;3.47;;;17.60;99.90;;;;;;5081994;28;20275;-54
2023/07/17 04:28:14;;;;;;;4.50;2.73;;;17.60;99.90;;;;;;5082185;28;20652;-57
2023/07/17 04:30:42;;;;;;;3.10;2.80;;;17.60;99.90;;;;;;5065996;28;20208;-57
2023/07/17 04:33:13;;;;;;;4.47;3.10;;;17.60;99.90;;;;;;5077545;28;20178;-58
2023/07/17 04:35:41;;;;;;;3.43;2.87;;;17.70;99.90;;;;;;5081848;28;20218;-53
2023/07/17 04:38:09;;;;;;;3.53;2.90;;;17.70;99.90;;;;;;5056788;28;20568;-58
2023/07/17 04:40:35;;;;;;;5.97;2.73;;;17.70;99.90;;;;;;5079432;28;20202;-50
2023/07/17 04:43:03;;;;;;;3.77;2.90;;;17.70;99.90;;;;;;5074569;28;20190;-57
2023/07/17 04:45:32;;;;;;;3.77;2.90;;;17.80;99.90;;;;;;5080666;28;20892;-56
2023/07/17 04:48:03;;;;;;;4.03;2.97;;;17.70;99.90;;;;;;5065478;28;20198;-56
2023/07/17 04:50:31;;;;;;;7.67;2.83;;;17.70;99.90;;;;;;5071285;28;20190;-55
2023/07/17 04:53:00;;;;;;;4.37;2.70;;;17.80;99.90;;;;;;5046919;28;20275;-55
2023/07/17 04:55:27;;;;;;;4.03;2.77;;;17.70;99.90;;;;;;5065236;28;20726;-57
2023/07/17 04:57:54;;;;;;;3.87;2.97;;;17.80;99.90;;;;;;5070717;28;20247;-56
2023/07/17 05:00:24;;;;;;;4.03;2.77;;;17.80;99.90;;;;;;5071009;28;20249;-58
2023/07/17 05:02:52;;;;;;;5.87;3.40;;;17.80;99.90;;;;;;5087402;28;20205;-51
2023/07/17 05:05:19;;;;;;;3.27;2.97;;;17.80;99.90;;;;;;5078762;28;20217;-59
2023/07/17 05:07:47;;;;;;;5.63;2.50;;;17.80;99.90;;;;;;5068974;28;20904;-51
2023/07/17 05:10:14;;;;;;;6.37;2.90;;;17.80;99.90;;;;;;5055298;28;20202;-58
2023/07/17 05:12:42;;;;;;;5.17;3.07;;;17.80;99.90;;;;;;5073415;28;20210;-54
2023/07/17 05:15:10;;;;;;;5.40;2.93;;;17.80;99.90;;;;;;5074929;28;20214;-57
2023/07/17 05:17:38;;;;;;;3.87;2.87;;;17.80;99.90;;;;;;5066708;28;20194;-56
2023/07/17 05:20:07;;;;;;;3.83;2.70;;;17.80;99.90;;;;;;5074557;28;20591;-51
2023/07/17 05:22:34;;;;;;;4.20;2.83;;;17.80;99.90;;;;;;5072115;28;20209;-51
2023/07/17 05:25:04;;;;;;;3.30;2.70;;;17.80;99.90;;;;;;5062833;28;20232;-56
2023/07/17 05:27:31;;;;;;;5.43;3.07;;;17.80;99.90;;;;;;5066466;28;20259;-56
2023/07/17 05:29:59;;;;;;;4.47;2.57;;;17.90;99.90;;;;;;5068310;28;20303;-54
2023/07/17 05:32:26;;;;;;;5.73;3.10;;;17.80;99.90;;;;;;5072212;28;20199;-58
2023/07/17 05:34:53;;;;;;;3.30;2.97;;;17.80;99.90;;;;;;5077920;28;20243;-52
2023/07/17 05:37:20;;;;;;;3.70;2.90;;;17.90;99.90;;;;;;5071406;28;20649;-57
2023/07/17 05:39:49;;;;;;;3.83;2.73;;;17.80;99.90;;;;;;5053228;28;20247;-53
2023/07/17 05:42:17;;;;;;;3.33;2.83;;;17.80;99.90;;;;;;5061347;28;20198;-59
2023/07/17 05:44:45;;;;;;;7.40;3.00;;;17.80;99.90;;;;;;5065243;28;21881;-49
2023/07/17 05:47:12;;;;;;;3.67;3.10;;;17.80;99.90;;;;;;5077319;28;20637;-57
2023/07/17 05:49:39;;;;;;;4.63;3.10;;;17.80;99.90;;;;;;5074002;28;20268;-53
2023/07/17 05:52:07;;;;;;;3.40;2.57;;;17.80;99.90;;;;;;5073476;28;20183;-55
2023/07/17 05:54:34;;;;;;;3.30;3.00;;;17.80;99.90;;;;;;5046677;28;20198;-54
2023/07/17 05:57:02;;;;;;;6.57;3.00;;;17.70;99.90;;;;;;5070612;28;20214;-52
2023/07/17 05:59:30;;;;;;;4.13;3.27;;;17.70;99.90;;;;;;5072314;28;20990;-55
2023/07/17 06:01:57;;;;;;;5.27;3.10;;;17.80;99.90;;;;;;5068904;28;20273;-53
2023/07/17 06:04:24;;;;;;;5.80;3.00;;;17.90;99.90;;;;;;5070754;28;20214;-58
2023/07/17 06:06:51;;;;;;;3.27;2.97;;;18.00;99.90;;;;;;5076622;28;20210;-54
2023/07/17 06:09:18;;;;;;;4.20;3.50;;;18.10;99.90;;;;;;5065670;28;20275;-59
2023/07/17 06:11:45;;;;;;;6.13;2.77;;;18.20;99.90;;;;;;5073832;28;20194;-53
2023/07/17 06:14:12;;;;;;;5.47;3.37;;;18.30;99.90;;;;;;5075735;28;20660;-57
2023/07/17 06:16:41;;;;;;;7.20;3.30;;;18.40;99.90;;;;;;5072966;28;20990;-55
2023/07/17 06:19:07;;;;;;;5.47;2.83;;;18.50;99.90;;;;;;5067358;28;20198;-55
2023/07/17 06:21:34;;;;;;;4.33;2.77;;;18.50;99.90;;;;;;5082495;28;20186;-55
2023/07/17 06:24:01;;;;;;;6.27;2.93;;;18.50;99.90;;;;;;5086164;28;20226;-56
2023/07/17 06:26:28;;;;;;;3.77;3.13;;;18.60;99.90;;;;;;5063545;28;20229;-58
2023/07/17 06:28:54;;;;;;;4.30;2.90;;;18.60;99.90;;;;;;5068339;28;20214;-55
2023/07/17 06:31:21;;;;;;;2.77;2.43;;;18.60;99.90;;;;;;5079717;28;20240;-58
2023/07/17 06:33:49;;;;;;;7.50;3.13;;;18.60;99.90;;;;;;5085013;28;20741;-53
2023/07/17 06:36:16;;;;;;;4.23;2.57;;;18.70;99.90;;;;;;5084326;28;20286;-58
2023/07/17 06:38:43;;;;;;;5.43;2.60;;;18.70;99.90;;;;;;5082706;28;20225;-52
2023/07/17 06:41:10;;;;;;;5.47;3.10;;;18.70;99.90;;;;;;5062614;28;20316;-58
2023/07/17 06:43:36;;;;;;;3.60;2.60;;;18.70;99.90;;;;;;5069513;28;22142;-48
2023/07/17 06:46:04;;;;;;;3.73;2.37;;;18.70;99.90;;;;;;5085452;28;20298;-46
2023/07/17 06:48:31;;;;;;;3.87;2.67;;;18.80;99.90;;;;;;5067698;28;20204;-47
2023/07/17 06:50:59;;;;;;;5.47;3.00;;;18.80;99.90;;;;;;5069261;28;20291;-50
2023/07/17 06:53:26;;;;;;;6.10;2.70;;;18.90;99.90;;;;;;5080624;28;20621;-51
2023/07/17 06:55:57;;;;;;;6.13;2.67;;;19.00;99.90;;;;;;5056207;28;20226;-45
2023/07/17 06:58:24;;;;;;;2.77;2.50;;;18.90;99.90;;;;;;5080348;28;20208;-46
2023/07/17 07:00:56;;;;;;;5.67;3.07;;;18.80;99.90;;;;;;5069563;28;20218;-43
2023/07/17 07:03:23;;;;;;;6.43;3.03;;;18.90;99.90;;;;;;5075993;28;20590;-45
2023/07/17 07:05:57;;;;;;;4.27;2.30;;;19.00;99.90;;;;;;5075527;28;20325;-44
2023/07/17 07:08:26;;;;;;;5.23;2.60;;;19.00;99.90;;;;;;5084215;28;20194;-50
2023/07/17 07:10:53;;;;;;;4.47;2.50;;;19.10;99.90;;;;;;5057261;28;20226;-42
2023/07/17 07:13:20;;;;;;;6.10;3.10;;;19.10;99.90;;;;;;5080750;28;20242;-44
2023/07/17 07:15:48;;;;;;;5.13;2.60;;;19.10;99.90;;;;;;5072591;28;20233;-43
2023/07/17 07:18:14;;;;;;;2.87;2.20;;;19.20;99.90;;;;;;5070091;28;20225;-45
2023/07/17 07:20:42;;;;;;;4.63;2.60;;;19.10;99.90;;;;;;5080088;28;20194;-47
2023/07/17 07:23:08;;;;;;;4.23;2.97;;;19.10;99.90;;;;;;5082753;28;20190;-45
2023/07/17 07:25:37;;;;;;;9.17;3.43;;;19.10;99.90;;;;;;5077060;28;20320;-46
2023/07/17 07:28:04;;;;;;;5.23;3.10;;;19.10;99.90;;;;;;5058465;28;20209;-45
2023/07/17 07:30:31;;;;;;;6.23;2.77;;;19.20;99.90;;;;;;5061493;28;20226;-44
2023/07/17 07:32:58;;;;;;;6.03;3.17;;;19.20;99.90;;;;;;5077605;28;20989;-50
2023/07/17 07:35:25;;;;;;;5.27;2.50;;;19.30;99.90;;;;;;5078923;28;20226;-45
2023/07/17 07:37:51;;;;;;;7.53;2.83;;;19.30;99.90;;;;;;5080053;28;20606;-48
2023/07/17 07:40:18;;;;;;;6.90;2.63;;;19.30;99.90;;;;;;5081939;28;20358;-47
2023/07/17 07:42:46;;;;;;;5.03;2.70;;;19.30;99.90;;;;;;5042411;28;20210;-45
2023/07/17 07:45:13;;;;;;;2.97;2.67;;;19.40;99.90;;;;;;5083583;28;20812;-43
2023/07/17 07:47:40;;;;;;;4.60;2.93;;;19.50;99.90;;;;;;5076930;28;20222;-44
2023/07/17 07:50:08;;;;;;;3.67;2.93;;;19.50;99.90;;;;;;5074205;28;20270;-45
2023/07/17 07:52:35;;;;;;;4.97;2.93;;;19.60;99.90;;;;;;5077508;28;20221;-43
2023/07/17 07:55:02;;;;;;;4.23;2.50;;;19.60;99.90;;;;;;5078809;28;20267;-45
2023/07/17 07:57:29;;;;;;;3.83;2.17;;;19.70;99.90;;;;;;5075180;28;20201;-46
2023/07/17 07:59:57;;;;;;;3.53;2.53;;;19.90;99.90;;;;;;5061263;28;20217;-46
2023/07/17 08:02:24;;;;;;;2.70;2.27;;;20.00;99.90;;;;;;5077520;28;20263;-46
2023/07/17 08:04:51;;;;;;;4.30;2.23;;;20.20;99.90;;;;;;5066337;28;20229;-43
2023/07/17 08:07:18;;;;;;;5.07;2.50;;;20.20;99.90;;;;;;5081191;28;20220;-48
2023/07/17 08:09:45;;;;;;;4.57;2.27;;;20.10;99.90;;;;;;5082024;28;20222;-46
2023/07/17 08:12:11;;;;;;;4.43;2.17;;;20.30;99.90;;;;;;5077721;28;20214;-48
2023/07/17 08:14:38;;;;;;;6.60;2.47;;;20.30;99.90;;;;;;5064717;28;20553;-44
2023/07/17 08:17:07;;;;;;;3.73;1.53;;;20.30;99.90;;;;;;5062545;28;20298;-42
2023/07/17 08:19:33;;;;;;;4.60;2.20;;;20.40;99.90;;;;;;5081901;28;21803;-45
2023/07/17 08:22:00;;;;;;;4.30;2.27;;;20.50;99.90;;;;;;5068991;28;20246;-50
2023/07/17 08:24:27;;;;;;;3.77;2.27;;;20.60;99.90;;;;;;5082479;28;20237;-50
2023/07/17 08:26:54;;;;;;;4.37;2.10;;;20.60;99.90;;;;;;5072018;28;20226;-43
2023/07/17 08:29:21;;;;;;;4.97;2.30;;;20.50;99.90;;;;;;5050526;28;20802;-46
2023/07/17 08:31:48;;;;;;;8.73;2.73;;;20.60;99.90;;;;;;5072038;28;20729;-41
2023/07/17 08:34:17;;;;;;;4.37;2.20;;;20.60;99.90;;;;;;5081585;28;20214;-45
2023/07/17 08:36:44;;;;;;;2.27;1.83;;;20.70;99.90;;;;;;5070432;28;20217;-44
2023/07/17 08:39:11;;;;;;;2.33;1.77;;;20.70;99.90;;;;;;5077493;28;20444;-46
2023/07/17 08:41:39;;;;;;;4.47;2.13;;;21.00;99.90;;;;;;5075769;28;20194;-41
2023/07/17 08:44:06;;;;;;;3.17;2.20;;;21.00;99.90;;;;;;5054984;28;20209;-49
2023/07/17 08:46:34;;;;;;;2.57;1.60;;;21.20;99.90;;;;;;5080035;28;20222;-48
2023/07/17 08:49:02;;;;;;;3.33;2.03;;;21.20;99.90;;;;;;5069247;28;20240;-46
2023/07/17 08:51:31;;;;;;;5.93;2.07;;;21.20;99.90;;;;;;5072028;28;20209;-46
2023/07/17 08:54:00;;;;;;;2.47;2.03;;;21.30;99.90;;;;;;5073844;28;20247;-46
2023/07/17 08:56:28;;;;;;;6.93;2.63;;;21.60;99.90;;;;;;5079820;28;20213;-45
2023/07/17 08:58:55;;;;;;;2.33;1.80;;;21.60;99.90;;;;;;5060257;28;20228;-45
2023/07/17 09:01:22;;;;;;;3.57;2.07;;;21.60;99.90;;;;;;5076824;28;20198;-45
2023/07/17 09:03:52;;;;;;;2.60;1.90;;;21.60;99.90;;;;;;5071867;28;20193;-41
2023/07/17 09:06:24;;;;;;;3.90;2.00;;;21.60;99.90;;;;;;5071523;28;20758;-47
2023/07/17 09:08:54;;;;;;;4.60;2.23;;;21.40;97.50;;;;;;5071508;28;20263;-58
2023/07/17 09:11:22;;;;;;;3.47;2.03;;;21.40;98.60;;;;;;5082080;28;20247;-52
2023/07/17 09:13:53;;;;;;;3.20;1.90;;;21.30;98.30;;;;;;5079690;28;20280;-57
2023/07/17 09:16:22;;;;;;;4.43;2.08;;;21.30;98.50;;;;;;5048119;28;20217;-55
2023/07/17 09:18:52;;;;;;;2.60;1.93;;;21.50;97.90;;;;;;5071782;28;20314;-58
2023/07/17 09:21:24;;;;;;;1.97;1.63;;;21.60;97.30;;;;;;5081853;28;20648;-56
2023/07/17 09:23:57;;;;;;;3.33;1.70;;;21.60;97.20;;;;;;5080327;28;20205;-57
2023/07/17 09:26:33;;;;;;;2.40;1.80;;;21.40;97.40;;;;;;5083308;28;20202;-56
2023/07/17 09:29:03;;;;;;;3.23;2.03;;;21.50;97.70;;;;;;5061736;28;20194;-57
2023/07/17 09:31:35;;;;;;;6.20;1.83;;;21.40;97.80;;;;;;5052796;28;20189;-53
2023/07/17 09:34:15;;;;;;;4.47;2.17;;;21.30;98.30;;;;;;5073838;28;20749;-56
2023/07/17 09:36:53;;;;;;;1.97;1.77;;;21.20;98.10;;;;;;5074912;28;20210;-56
2023/07/17 09:39:25;;;;;;;2.73;1.80;;;21.00;98.10;;;;;;5074638;28;20197;-55
2023/07/17 09:41:57;;;;;;;4.53;1.90;;;20.90;98.10;;;;;;5074214;28;20699;-55
2023/07/17 09:44:29;;;;;;;3.08;1.70;;;20.90;98.30;;;;;;5078120;28;20210;-56
2023/07/17 09:46:56;;;;;;;3.10;2.10;;;21.00;98.00;;;;;;5056072;28;20241;-54
2023/07/17 09:49:28;;;;;;;4.23;1.83;;;21.10;97.80;;;;;;5070617;28;20717;-56
2023/07/17 09:52:05;;;;;;;3.80;1.80;;;21.20;97.70;;;;;;5068769;28;20677;-53
2023/07/17 09:54:42;;;;;;;4.30;1.87;;;21.30;97.20;;;;;;5083072;28;20967;-56
2023/07/17 09:57:15;;;;;;;4.23;2.00;;;21.20;97.30;;;;;;5085773;28;20216;-56
2023/07/17 09:59:47;;;;;;;2.10;1.47;;;21.10;97.20;;;;;;5082932;28;20186;-52
2023/07/17 10:02:19;;;;;;;6.30;1.77;;;21.00;97.60;;;;;;5074456;28;20210;-56
2023/07/17 10:04:52;;;;;;;3.33;2.20;;;21.00;97.70;;;;;;5068891;28;20202;-53
2023/07/17 10:07:32;;;;;;;2.23;1.67;;;21.20;97.50;;;;;;5069556;28;20205;-55
2023/07/17 10:10:14;;;;;;;6.80;2.03;;;21.30;97.30;;;;;;5086061;28;20194;-48
2023/07/17 10:12:43;;;;;;;3.67;1.80;;;21.30;96.70;;;;;;5081930;28;20182;-56
2023/07/17 10:15:12;;;;;;;5.83;1.70;;;21.20;96.50;;;;;;5080849;28;20283;-56
2023/07/17 10:17:45;;;;;;;2.27;1.80;;;21.00;96.50;;;;;;5060196;28;24470;-55
2023/07/17 10:20:15;;;;;;;2.23;2.03;;;20.80;96.80;;;;;;5078780;28;20194;-56
2023/07/17 10:22:44;;;;;;;2.33;2.00;;;20.70;97.20;;;;;;5073395;28;20376;-55
2023/07/17 10:25:30;;;;;;;3.83;2.00;;;20.70;98.00;;;;;;5085439;28;20583;-53
2023/07/17 10:28:05;;;;;;;5.00;2.03;;;20.90;98.60;;;;;;5077221;28;20193;-56
2023/07/17 10:30:37;;;;;;;3.53;2.03;;;21.30;98.30;;;;;;5079060;28;20177;-54
2023/07/17 10:33:15;;;;;;;3.83;1.77;;;21.40;97.50;;;;;;5086613;28;20190;-55
2023/07/17 10:35:52;;;;;;;4.50;2.10;;;21.50;96.90;;;;;;5070719;28;20229;-54
2023/07/17 10:38:27;;;;;;;3.60;1.93;;;21.50;96.50;;;;;;5068970;28;20205;-56
2023/07/17 10:41:32;;;;;;;5.07;2.10;;;21.50;95.70;;;;;;5075157;28;20205;-56
2023/07/17 10:44:11;;;;;;;3.70;1.80;;;21.50;95.90;;;;;;5086072;28;20275;-54
2023/07/17 10:46:41;;;;;;;2.87;1.77;;;21.60;95.40;;;;;;5075382;28;20221;-54
2023/07/17 10:49:10;;;;;;;2.80;1.87;;;21.70;94.70;;;;;;5073870;28;20189;-56
2023/07/17 10:51:46;;;;;;;3.85;2.53;;;21.70;94.70;;;;;;5059288;28;20214;-54
2023/07/17 10:54:23;;;;;;;4.25;2.10;;;21.70;94.70;;;;;;5065431;28;20276;-56
2023/07/17 10:57:04;;;;;;;4.32;2.17;;;21.80;94.20;;;;;;5076682;28;20207;-51
2023/07/17 10:59:33;;;;;;;6.00;2.60;;;21.60;94.00;;;;;;5076357;28;20946;-54
2023/07/17 11:02:02;;;;;;;3.65;2.28;;;21.50;94.20;;;;;;5085076;28;20652;-50
2023/07/17 11:04:36;;;;;;;3.80;2.10;;;21.50;94.40;;;;;;5051284;28;20864;-50
2023/07/17 11:07:10;;;;;;;3.10;2.20;;;21.70;94.20;;;;;;5075430;28;20965;-55
2023/07/17 11:09:50;;;;;;;4.68;2.58;;;21.70;94.10;;;;;;5068783;28;20668;-56
2023/07/17 11:12:25;;;;;;;3.15;2.47;;;21.80;94.70;;;;;;5081318;28;20194;-53
2023/07/17 11:15:00;;;;;;;4.28;2.03;;;22.00;94.70;;;;;;5078865;28;20180;-54
2023/07/17 11:17:28;;;;;;;4.18;2.58;;;22.10;94.70;;;;;;5077716;28;20854;-55
2023/07/17 11:20:06;;;;;;;4.18;2.50;;;22.20;94.00;;;;;;5054337;28;23336;-55
2023/07/17 11:22:36;;;;;;;6.90;2.53;;;22.20;93.70;;;;;;5071985;28;20210;-57
2023/07/17 11:25:05;;;;;;;2.53;2.28;;;22.10;93.90;;;;;;5074022;28;20202;-51
2023/07/17 11:27:33;;;;;;;2.25;1.98;;;22.10;94.80;;;;;;5069576;28;20901;-56
2023/07/17 11:30:00;;;;;;;3.67;2.30;;;22.30;94.50;;;;;;5074534;28;20209;-57
2023/07/17 11:32:28;;;;;;;4.80;2.25;;;22.40;94.50;;;;;;5079332;28;20190;-56
2023/07/17 11:34:59;;;;;;;3.22;2.10;;;22.20;94.40;;;;;;5058972;28;20260;-57
2023/07/17 11:37:34;;;;;;;4.60;2.60;;;22.10;93.70;;;;;;5078155;28;20222;-57
2023/07/17 11:40:05;;;;;;;5.20;2.53;;;21.90;94.30;;;;;;5064657;28;20190;-57
2023/07/17 11:42:52;;;;;;;5.30;2.60;;;21.70;94.50;;;;;;5071023;28;20209;-55
2023/07/17 11:45:20;;;;;;;5.15;2.28;;;21.50;95.20;;;;;;5081104;28;20259;-56
2023/07/17 11:47:47;;;;;;;1.40;1.30;;;21.30;96.60;;;;;;5077870;28;20210;-56
2023/07/17 11:50:14;;;;;;;2.90;1.20;;;20.90;97.40;;;;;;5073256;28;20194;-53
2023/07/17 11:52:41;;;;;;;4.57;0.93;;;20.50;98.40;;;;;;5055001;28;20229;-56
2023/07/17 11:55:08;;;;;;;1.77;0.77;;;20.20;98.80;;;;;;5072878;28;20233;-57
2023/07/17 11:57:36;;;;;;;2.63;0.90;;;20.00;99.00;;;;;;5063129;28;20202;-55
2023/07/17 12:00:04;;;;;;;1.27;0.90;;;20.10;99.10;;;;;;5077100;28;20212;-55
2023/07/17 12:02:38;;;;;;;1.07;0.70;;;20.20;99.40;;;;;;5074537;28;20625;-54
2023/07/17 12:05:05;;;;;;;2.10;0.73;;;20.30;99.80;;;;;;5077241;28;20187;-58
2023/07/17 12:07:33;;;;;;;1.43;0.90;;;20.40;99.80;;;;;;5060137;28;20275;-53
2023/07/17 12:10:00;;;;;;;2.93;1.13;;;20.30;99.90;;;;;;5071077;28;20790;-56
2023/07/17 12:12:27;;;;;;;3.93;1.50;;;20.30;99.90;;;;;;5080786;28;20225;-55
2023/07/17 12:14:55;;;;;;;2.77;1.20;;;20.10;99.90;;;;;;5058549;28;20398;-57
2023/07/17 12:17:22;;;;;;;2.37;1.20;;;19.90;99.90;;;;;;5082294;28;20186;-57
2023/07/17 12:19:48;;;;;;;1.33;1.10;;;19.80;99.90;;;;;;5081730;28;20939;-53
2023/07/17 12:22:15;;;;;;;2.73;1.20;;;19.60;99.90;;;;;;5060898;28;20233;-56
2023/07/17 12:24:42;;;;;;;1.90;1.27;;;19.50;99.90;;;;;;5070985;28;20345;-54
2023/07/17 12:27:09;;;;;;;1.90;1.07;;;19.40;99.90;;;;;;5080311;28;20210;-56
2023/07/17 12:29:36;;;;;;;1.20;1.10;;;19.30;99.90;;;;;;5070849;28;20259;-55
2023/07/17 12:32:04;;;;;;;0.70;0.70;;;19.10;99.90;;;;;;5076039;28;20656;-56
2023/07/17 12:34:31;;;;;;;2.10;0.80;;;19.00;99.90;;;;;;5079096;28;20189;-53
2023/07/17 12:36:58;;;;;;;1.50;0.70;;;18.80;99.90;;;;;;5082451;28;20270;-56
2023/07/17 12:39:26;;;;;;;3.10;0.90;;;18.70;99.90;;;;;;5049832;28;20209;-56
2023/07/17 12:41:54;;;;;;;1.33;0.90;;;18.70;99.90;;;;;;5067950;28;20206;-54
2023/07/17 12:44:20;;;;;;;1.87;0.80;;;18.60;99.90;;;;;;5070091;28;20280;-51
2023/07/17 12:46:47;;;;;;;1.10;0.90;;;18.50;99.90;;;;;;5065638;28;20609;-56
2023/07/17 12:49:15;;;;;;;1.00;1.00;;;18.40;99.90;;;;;;5074597;28;20186;-53
2023/07/17 12:51:42;;;;;;;1.50;0.97;;;18.40;99.90;;;;;;5073687;28;20202;-56
2023/07/17 12:54:09;;;;;;;0.83;0.80;;;18.30;99.90;;;;;;5059850;28;20274;-54